sensor_id;sensor_type;location;lat;lon;timestamp;temperature;humidity
1786;DHT22;890;48.158;11.540;2022-12-24T00:02:13;10.80;99.90
1786;DHT22;890;48.158;11.540;2022-12-24T00:04:39;10.70;99.90
1786;DHT22;890;48.158;11.540;2022-12-24T00:07:04;10.80;99.90
1786;DHT22;890;48.158;11.540;2022-12-24T00:09:30;10.80;99.90
1786;DHT22;890;48.158;11.540;2022-12-24T00:11:55;10.90;99.90
1786;DHT22;890;48.158;11.540;2022-12-24T00:14:21;10.90;99.90
1786;DHT22;890;48.158;11.540;2022-12-24T00:16:47;10.90;99.90
1786;DHT22;890;48.158;11.540;2022-12-24T00:19:12;10.90;99.90
1786;DHT22;890;48.158;11.540;2022-12-24T00:21:38;10.90;99.90
1786;DHT22;890;48.158;11.540;2022-12-24T00:24:04;10.90;99.90
1786;DHT22;890;48.158;11.540;2022-12-24T00:26:31;11.00;99.90
1786;DHT22;890;48.158;11.540;2022-12-24T00:28:56;11.00;99.90
1786;DHT22;890;48.158;11.540;2022-12-24T00:31:22;11.10;99.90
1786;DHT22;890;48.158;11.540;2022-12-24T00:33:48;11.10;99.90
1786;DHT22;890;48.158;11.540;2022-12-24T00:36:14;11.20;99.90
1786;DHT22;890;48.158;11.540;2022-12-24T00:38:40;11.20;99.90
1786;DHT22;890;48.158;11.540;2022-12-24T00:41:07;11.20;99.90
1786;DHT22;890;48.158;11.540;2022-12-24T00:46:22;11.20;99.90
1786;DHT22;890;48.158;11.540;2022-12-24T00:48:48;11.20;99.90
1786;DHT22;890;48.158;11.540;2022-12-24T00:51:14;11.30;99.90
1786;DHT22;890;48.158;11.540;2022-12-24T00:53:40;11.30;99.90
1786;DHT22;890;48.158;11.540;2022-12-24T00:56:06;11.30;99.90
1786;DHT22;890;48.158;11.540;2022-12-24T00:58:32;11.30;99.90
1786;DHT22;890;48.158;11.540;2022-12-24T01:00:57;11.30;99.90
1786;DHT22;890;48.158;11.540;2022-12-24T01:03:23;11.30;99.90
1786;DHT22;890;48.158;11.540;2022-12-24T01:05:58;11.30;99.90
1786;DHT22;890;48.158;11.540;2022-12-24T01:08:24;11.40;99.90
1786;DHT22;890;48.158;11.540;2022-12-24T01:10:49;11.30;99.90
1786;DHT22;890;48.158;11.540;2022-12-24T01:13:15;11.30;99.90
1786;DHT22;890;48.158;11.540;2022-12-24T01:15:40;11.30;99.90
1786;DHT22;890;48.158;11.540;2022-12-24T01:18:06;11.30;99.90
1786;DHT22;890;48.158;11.540;2022-12-24T01:20:31;11.30;99.90
1786;DHT22;890;48.158;11.540;2022-12-24T01:22:57;11.30;99.90
1786;DHT22;890;48.158;11.540;2022-12-24T01:25:23;11.30;99.90
1786;DHT22;890;48.158;11.540;2022-12-24T01:27:48;11.30;99.90
1786;DHT22;890;48.158;11.540;2022-12-24T01:30:14;11.30;99.90
1786;DHT22;890;48.158;11.540;2022-12-24T01:32:40;11.30;99.90
1786;DHT22;890;48.158;11.540;2022-12-24T01:35:06;11.30;99.90
1786;DHT22;890;48.158;11.540;2022-12-24T01:37:31;11.30;99.90
1786;DHT22;890;48.158;11.540;2022-12-24T01:39:57;11.40;99.90
1786;DHT22;890;48.158;11.540;2022-12-24T01:42:44;11.30;99.90
1786;DHT22;890;48.158;11.540;2022-12-24T01:45:40;11.30;99.90
1786;DHT22;890;48.158;11.540;2022-12-24T01:51:46;11.30;99.90
1786;DHT22;890;48.158;11.540;2022-12-24T01:53:51;11.30;99.90
1786;DHT22;890;48.158;11.540;2022-12-24T01:56:18;11.30;99.90
1786;DHT22;890;48.158;11.540;2022-12-24T01:58:49;11.30;99.90
1786;DHT22;890;48.158;11.540;2022-12-24T02:01:16;11.30;99.90
1786;DHT22;890;48.158;11.540;2022-12-24T02:03:42;11.40;99.90
1786;DHT22;890;48.158;11.540;2022-12-24T02:06:08;11.40;99.90
1786;DHT22;890;48.158;11.540;2022-12-24T02:08:37;11.40;99.90
1786;DHT22;890;48.158;11.540;2022-12-24T02:11:13;11.40;99.90
1786;DHT22;890;48.158;11.540;2022-12-24T02:13:40;11.40;99.90
1786;DHT22;890;48.158;11.540;2022-12-24T02:16:16;11.50;99.90
1786;DHT22;890;48.158;11.540;2022-12-24T02:19:01;11.40;99.90
1786;DHT22;890;48.158;11.540;2022-12-24T02:21:49;11.40;99.90
1786;DHT22;890;48.158;11.540;2022-12-24T02:24:36;11.40;99.90
1786;DHT22;890;48.158;11.540;2022-12-24T02:27:11;11.40;99.90
1786;DHT22;890;48.158;11.540;2022-12-24T02:29:49;11.40;99.90
1786;DHT22;890;48.158;11.540;2022-12-24T02:32:47;11.40;99.90
1786;DHT22;890;48.158;11.540;2022-12-24T02:35:26;11.40;99.90
1786;DHT22;890;48.158;11.540;2022-12-24T02:38:07;11.40;99.90
1786;DHT22;890;48.158;11.540;2022-12-24T02:40:40;11.50;99.90
1786;DHT22;890;48.158;11.540;2022-12-24T02:43:13;11.50;99.90
1786;DHT22;890;48.158;11.540;2022-12-24T02:45:42;11.40;99.90
1786;DHT22;890;48.158;11.540;2022-12-24T02:48:11;11.50;99.90
1786;DHT22;890;48.158;11.540;2022-12-24T02:50:38;11.50;99.90
1786;DHT22;890;48.158;11.540;2022-12-24T02:53:05;11.50;99.90
1786;DHT22;890;48.158;11.540;2022-12-24T02:58:39;11.50;99.90
1786;DHT22;890;48.158;11.540;2022-12-24T03:07:34;11.50;99.90
1786;DHT22;890;48.158;11.540;2022-12-24T03:10:22;11.50;99.90
1786;DHT22;890;48.158;11.540;2022-12-24T03:13:12;11.40;99.90
1786;DHT22;890;48.158;11.540;2022-12-24T03:15:40;11.50;99.90
1786;DHT22;890;48.158;11.540;2022-12-24T03:18:08;11.50;99.90
1786;DHT22;890;48.158;11.540;2022-12-24T03:20:41;11.50;99.90
1786;DHT22;890;48.158;11.540;2022-12-24T03:23:07;11.50;99.90
1786;DHT22;890;48.158;11.540;2022-12-24T03:25:34;11.60;99.90
1786;DHT22;890;48.158;11.540;2022-12-24T03:28:04;11.60;99.90
1786;DHT22;890;48.158;11.540;2022-12-24T03:30:31;11.60;99.90
1786;DHT22;890;48.158;11.540;2022-12-24T03:32:56;11.60;99.80
1786;DHT22;890;48.158;11.540;2022-12-24T03:35:22;11.60;99.60
1786;DHT22;890;48.158;11.540;2022-12-24T03:37:48;11.60;99.50
1786;DHT22;890;48.158;11.540;2022-12-24T03:40:14;11.70;99.50
1786;DHT22;890;48.158;11.540;2022-12-24T03:42:39;11.60;99.30
1786;DHT22;890;48.158;11.540;2022-12-24T03:45:05;11.60;99.10
1786;DHT22;890;48.158;11.540;2022-12-24T03:47:31;11.60;99.00
1786;DHT22;890;48.158;11.540;2022-12-24T03:49:57;11.60;98.90
1786;DHT22;890;48.158;11.540;2022-12-24T03:52:22;11.70;98.80
1786;DHT22;890;48.158;11.540;2022-12-24T03:54:48;11.70;98.70
1786;DHT22;890;48.158;11.540;2022-12-24T03:57:13;11.70;98.60
1786;DHT22;890;48.158;11.540;2022-12-24T03:59:39;11.70;98.50
1786;DHT22;890;48.158;11.540;2022-12-24T04:02:05;11.70;98.40
1786;DHT22;890;48.158;11.540;2022-12-24T04:04:30;11.70;98.40
1786;DHT22;890;48.158;11.540;2022-12-24T04:06:58;11.70;98.20
1786;DHT22;890;48.158;11.540;2022-12-24T04:09:24;11.70;98.20
1786;DHT22;890;48.158;11.540;2022-12-24T04:11:49;11.70;98.00
1786;DHT22;890;48.158;11.540;2022-12-24T04:14:15;11.30;97.70
1786;DHT22;890;48.158;11.540;2022-12-24T04:16:41;11.70;97.80
1786;DHT22;890;48.158;11.540;2022-12-24T04:19:06;11.70;97.70
1786;DHT22;890;48.158;11.540;2022-12-24T04:21:32;11.70;97.60
1786;DHT22;890;48.158;11.540;2022-12-24T04:23:57;11.70;97.40
1786;DHT22;890;48.158;11.540;2022-12-24T04:26:23;11.70;97.40
1786;DHT22;890;48.158;11.540;2022-12-24T04:28:49;11.70;97.20
1786;DHT22;890;48.158;11.540;2022-12-24T04:31:16;11.70;97.10
1786;DHT22;890;48.158;11.540;2022-12-24T04:33:42;11.70;97.00
1786;DHT22;890;48.158;11.540;2022-12-24T04:36:11;11.70;97.10
1786;DHT22;890;48.158;11.540;2022-12-24T04:38:37;11.70;96.70
1786;DHT22;890;48.158;11.540;2022-12-24T04:41:26;11.70;96.60
1786;DHT22;890;48.158;11.540;2022-12-24T04:43:52;11.70;96.60
1786;DHT22;890;48.158;11.540;2022-12-24T04:46:22;11.70;96.50
1786;DHT22;890;48.158;11.540;2022-12-24T04:48:49;11.70;96.40
1786;DHT22;890;48.158;11.540;2022-12-24T04:51:17;11.70;96.30
1786;DHT22;890;48.158;11.540;2022-12-24T04:53:43;11.70;96.20
1786;DHT22;890;48.158;11.540;2022-12-24T04:56:14;11.70;96.20
1786;DHT22;890;48.158;11.540;2022-12-24T04:58:40;11.70;96.10
1786;DHT22;890;48.158;11.540;2022-12-24T05:01:08;11.70;96.10
1786;DHT22;890;48.158;11.540;2022-12-24T05:03:36;11.70;96.00
1786;DHT22;890;48.158;11.540;2022-12-24T05:06:07;11.70;95.80
1786;DHT22;890;48.158;11.540;2022-12-24T05:08:33;11.70;95.70
1786;DHT22;890;48.158;11.540;2022-12-24T05:11:00;11.70;95.70
1786;DHT22;890;48.158;11.540;2022-12-24T05:13:27;11.70;95.60
1786;DHT22;890;48.158;11.540;2022-12-24T05:15:52;11.70;95.60
1786;DHT22;890;48.158;11.540;2022-12-24T05:18:19;11.70;95.40
1786;DHT22;890;48.158;11.540;2022-12-24T05:20:46;11.70;95.30
1786;DHT22;890;48.158;11.540;2022-12-24T05:23:20;11.70;95.10
1786;DHT22;890;48.158;11.540;2022-12-24T05:26:17;11.60;94.70
1786;DHT22;890;48.158;11.540;2022-12-24T05:28:55;11.70;94.70
1786;DHT22;890;48.158;11.540;2022-12-24T05:31:23;11.70;94.60
1786;DHT22;890;48.158;11.540;2022-12-24T05:33:49;11.80;94.60
1786;DHT22;890;48.158;11.540;2022-12-24T05:36:15;11.80;94.40
1786;DHT22;890;48.158;11.540;2022-12-24T05:38:41;11.80;94.20
1786;DHT22;890;48.158;11.540;2022-12-24T05:41:07;11.80;94.20
1786;DHT22;890;48.158;11.540;2022-12-24T05:43:35;11.80;94.10
1786;DHT22;890;48.158;11.540;2022-12-24T05:46:02;11.80;94.00
1786;DHT22;890;48.158;11.540;2022-12-24T05:48:28;11.80;93.90
1786;DHT22;890;48.158;11.540;2022-12-24T05:50:54;12.00;93.90
1786;DHT22;890;48.158;11.540;2022-12-24T05:53:20;11.80;93.70
1786;DHT22;890;48.158;11.540;2022-12-24T05:55:46;11.80;93.60
1786;DHT22;890;48.158;11.540;2022-12-24T05:58:12;11.80;93.80
1786;DHT22;890;48.158;11.540;2022-12-24T06:00:38;11.70;93.30
1786;DHT22;890;48.158;11.540;2022-12-24T06:03:03;9.70;92.70
1786;DHT22;890;48.158;11.540;2022-12-24T06:05:29;11.70;93.10
1786;DHT22;890;48.158;11.540;2022-12-24T06:07:55;11.70;92.90
1786;DHT22;890;48.158;11.540;2022-12-24T06:10:21;11.70;92.80
1786;DHT22;890;48.158;11.540;2022-12-24T06:12:46;11.70;92.70
1786;DHT22;890;48.158;11.540;2022-12-24T06:15:12;11.70;92.50
1786;DHT22;890;48.158;11.540;2022-12-24T06:17:38;11.70;92.50
1786;DHT22;890;48.158;11.540;2022-12-24T06:20:04;11.70;92.40
1786;DHT22;890;48.158;11.540;2022-12-24T06:22:30;11.70;92.40
1786;DHT22;890;48.158;11.540;2022-12-24T06:24:55;11.70;92.30
1786;DHT22;890;48.158;11.540;2022-12-24T06:27:21;11.70;92.30
1786;DHT22;890;48.158;11.540;2022-12-24T06:29:47;11.70;92.30
1786;DHT22;890;48.158;11.540;2022-12-24T06:32:12;11.70;92.30
1786;DHT22;890;48.158;11.540;2022-12-24T06:34:38;11.70;92.30
1786;DHT22;890;48.158;11.540;2022-12-24T06:37:03;11.70;92.40
1786;DHT22;890;48.158;11.540;2022-12-24T06:39:29;11.70;92.30
1786;DHT22;890;48.158;11.540;2022-12-24T06:41:54;11.70;92.40
1786;DHT22;890;48.158;11.540;2022-12-24T06:44:20;11.70;92.40
1786;DHT22;890;48.158;11.540;2022-12-24T06:46:46;11.70;92.40
1786;DHT22;890;48.158;11.540;2022-12-24T06:49:11;11.70;92.40
1786;DHT22;890;48.158;11.540;2022-12-24T06:51:37;11.60;92.40
1786;DHT22;890;48.158;11.540;2022-12-24T06:54:02;11.70;92.40
1786;DHT22;890;48.158;11.540;2022-12-24T06:56:28;11.60;92.30
1786;DHT22;890;48.158;11.540;2022-12-24T06:58:54;11.70;92.30
1786;DHT22;890;48.158;11.540;2022-12-24T07:01:20;11.70;92.20
1786;DHT22;890;48.158;11.540;2022-12-24T07:03:46;11.60;92.00
1786;DHT22;890;48.158;11.540;2022-12-24T07:06:25;11.70;92.00
1786;DHT22;890;48.158;11.540;2022-12-24T07:08:51;11.60;91.80
1786;DHT22;890;48.158;11.540;2022-12-24T07:11:17;11.70;91.80
1786;DHT22;890;48.158;11.540;2022-12-24T07:13:43;11.70;91.60
1786;DHT22;890;48.158;11.540;2022-12-24T07:16:08;11.70;91.40
1786;DHT22;890;48.158;11.540;2022-12-24T07:18:34;11.70;91.40
1786;DHT22;890;48.158;11.540;2022-12-24T07:21:01;11.70;91.30
1786;DHT22;890;48.158;11.540;2022-12-24T07:23:27;11.70;91.20
1786;DHT22;890;48.158;11.540;2022-12-24T07:25:53;11.70;91.00
1786;DHT22;890;48.158;11.540;2022-12-24T07:28:18;11.70;91.00
1786;DHT22;890;48.158;11.540;2022-12-24T07:30:44;11.70;90.80
1786;DHT22;890;48.158;11.540;2022-12-24T07:33:09;11.70;90.70
1786;DHT22;890;48.158;11.540;2022-12-24T07:35:35;11.70;90.50
1786;DHT22;890;48.158;11.540;2022-12-24T07:38:01;11.60;90.40
1786;DHT22;890;48.158;11.540;2022-12-24T07:40:27;11.60;90.20
1786;DHT22;890;48.158;11.540;2022-12-24T07:42:52;11.60;90.10
1786;DHT22;890;48.158;11.540;2022-12-24T07:45:18;11.60;90.00
1786;DHT22;890;48.158;11.540;2022-12-24T07:47:44;11.60;89.60
1786;DHT22;890;48.158;11.540;2022-12-24T07:50:09;11.60;89.50
1786;DHT22;890;48.158;11.540;2022-12-24T07:52:35;11.50;88.80
1786;DHT22;890;48.158;11.540;2022-12-24T07:55:01;11.50;88.60
1786;DHT22;890;48.158;11.540;2022-12-24T07:57:26;11.30;88.30
1786;DHT22;890;48.158;11.540;2022-12-24T07:59:52;11.40;88.00
1786;DHT22;890;48.158;11.540;2022-12-24T08:02:17;11.40;87.90
1786;DHT22;890;48.158;11.540;2022-12-24T08:04:43;11.30;87.70
1786;DHT22;890;48.158;11.540;2022-12-24T08:07:08;11.30;87.70
1786;DHT22;890;48.158;11.540;2022-12-24T08:09:35;11.30;87.30
1786;DHT22;890;48.158;11.540;2022-12-24T08:12:02;11.30;87.20
1786;DHT22;890;48.158;11.540;2022-12-24T08:14:28;11.30;86.90
1786;DHT22;890;48.158;11.540;2022-12-24T08:16:54;11.30;86.90
1786;DHT22;890;48.158;11.540;2022-12-24T08:19:20;11.30;86.70
1786;DHT22;890;48.158;11.540;2022-12-24T08:21:45;11.30;86.60
1786;DHT22;890;48.158;11.540;2022-12-24T08:24:11;11.30;86.30
1786;DHT22;890;48.158;11.540;2022-12-24T08:26:37;11.30;86.30
1786;DHT22;890;48.158;11.540;2022-12-24T08:29:03;11.30;86.10
1786;DHT22;890;48.158;11.540;2022-12-24T08:31:29;11.40;86.00
1786;DHT22;890;48.158;11.540;2022-12-24T08:34:02;11.30;85.50
1786;DHT22;890;48.158;11.540;2022-12-24T08:36:28;11.80;86.00
1786;DHT22;890;48.158;11.540;2022-12-24T08:38:53;11.40;85.40
1786;DHT22;890;48.158;11.540;2022-12-24T08:41:19;11.40;85.20
1786;DHT22;890;48.158;11.540;2022-12-24T08:43:44;10.90;84.50
1786;DHT22;890;48.158;11.540;2022-12-24T08:46:10;11.30;84.70
1786;DHT22;890;48.158;11.540;2022-12-24T08:48:36;11.30;84.70
1786;DHT22;890;48.158;11.540;2022-12-24T08:51:09;11.40;84.80
1786;DHT22;890;48.158;11.540;2022-12-24T08:53:35;11.40;84.60
1786;DHT22;890;48.158;11.540;2022-12-24T08:56:05;11.50;84.50
1786;DHT22;890;48.158;11.540;2022-12-24T08:58:31;12.00;84.80
1786;DHT22;890;48.158;11.540;2022-12-24T09:00:57;11.50;84.20
1786;DHT22;890;48.158;11.540;2022-12-24T09:03:23;11.50;84.30
1786;DHT22;890;48.158;11.540;2022-12-24T09:05:49;11.50;83.80
1786;DHT22;890;48.158;11.540;2022-12-24T09:08:15;11.60;83.90
1786;DHT22;890;48.158;11.540;2022-12-24T09:10:41;11.70;83.80
1786;DHT22;890;48.158;11.540;2022-12-24T09:13:06;11.70;83.50
1786;DHT22;890;48.158;11.540;2022-12-24T09:15:32;11.70;83.10
1786;DHT22;890;48.158;11.540;2022-12-24T09:17:57;11.80;82.90
1786;DHT22;890;48.158;11.540;2022-12-24T09:20:23;11.70;82.60
1786;DHT22;890;48.158;11.540;2022-12-24T09:22:48;11.80;82.80
1786;DHT22;890;48.158;11.540;2022-12-24T09:25:14;11.90;82.90
1786;DHT22;890;48.158;11.540;2022-12-24T09:27:40;12.00;82.70
1786;DHT22;890;48.158;11.540;2022-12-24T09:30:06;11.90;82.30
1786;DHT22;890;48.158;11.540;2022-12-24T09:32:32;11.90;81.90
1786;DHT22;890;48.158;11.540;2022-12-24T09:34:58;10.60;80.30
1786;DHT22;890;48.158;11.540;2022-12-24T09:37:24;11.90;81.30
1786;DHT22;890;48.158;11.540;2022-12-24T09:39:50;11.90;80.90
1786;DHT22;890;48.158;11.540;2022-12-24T09:42:40;11.80;80.60
1786;DHT22;890;48.158;11.540;2022-12-24T09:45:23;11.70;80.00
1786;DHT22;890;48.158;11.540;2022-12-24T09:47:58;11.60;79.80
1786;DHT22;890;48.158;11.540;2022-12-24T09:50:35;11.60;80.00
1786;DHT22;890;48.158;11.540;2022-12-24T09:53:20;11.50;79.70
1786;DHT22;890;48.158;11.540;2022-12-24T09:55:49;11.50;79.60
1786;DHT22;890;48.158;11.540;2022-12-24T09:58:22;11.50;79.40
1786;DHT22;890;48.158;11.540;2022-12-24T10:00:48;11.50;79.40
1786;DHT22;890;48.158;11.540;2022-12-24T10:03:16;11.50;79.40
1786;DHT22;890;48.158;11.540;2022-12-24T10:06:06;11.60;79.20
1786;DHT22;890;48.158;11.540;2022-12-24T10:08:58;11.60;78.80
1786;DHT22;890;48.158;11.540;2022-12-24T10:11:52;11.60;78.50
1786;DHT22;890;48.158;11.540;2022-12-24T10:14:25;11.60;78.60
1786;DHT22;890;48.158;11.540;2022-12-24T10:27:38;11.90;78.80
1786;DHT22;890;48.158;11.540;2022-12-24T10:30:19;12.00;78.70
1786;DHT22;890;48.158;11.540;2022-12-24T10:32:52;11.90;77.40
1786;DHT22;890;48.158;11.540;2022-12-24T10:35:22;11.90;77.20
1786;DHT22;890;48.158;11.540;2022-12-24T10:37:50;11.90;77.20
1786;DHT22;890;48.158;11.540;2022-12-24T10:40:44;11.90;77.30
1786;DHT22;890;48.158;11.540;2022-12-24T10:43:20;11.90;76.60
1786;DHT22;890;48.158;11.540;2022-12-24T10:45:50;11.90;76.40
1786;DHT22;890;48.158;11.540;2022-12-24T10:48:26;11.90;76.20
1786;DHT22;890;48.158;11.540;2022-12-24T10:51:10;11.80;75.60
1786;DHT22;890;48.158;11.540;2022-12-24T10:53:48;11.60;75.70
1786;DHT22;890;48.158;11.540;2022-12-24T10:56:19;11.60;76.00
1786;DHT22;890;48.158;11.540;2022-12-24T10:58:51;11.60;76.30
1786;DHT22;890;48.158;11.540;2022-12-24T11:01:17;11.80;76.90
1786;DHT22;890;48.158;11.540;2022-12-24T11:03:43;11.90;77.60
1786;DHT22;890;48.158;11.540;2022-12-24T11:06:14;12.20;78.10
1786;DHT22;890;48.158;11.540;2022-12-24T11:08:42;12.20;77.30
1786;DHT22;890;48.158;11.540;2022-12-24T11:16:34;12.90;77.70
1786;DHT22;890;48.158;11.540;2022-12-24T11:19:03;12.90;76.40
1786;DHT22;890;48.158;11.540;2022-12-24T11:24:13;13.40;80.20
1786;DHT22;890;48.158;11.540;2022-12-24T11:26:43;13.50;76.30
1786;DHT22;890;48.158;11.540;2022-12-24T11:29:21;13.50;74.10
1786;DHT22;890;48.158;11.540;2022-12-24T11:31:48;13.20;73.00
1786;DHT22;890;48.158;11.540;2022-12-24T11:34:32;13.20;73.70
1786;DHT22;890;48.158;11.540;2022-12-24T11:37:15;13.10;73.80
1786;DHT22;890;48.158;11.540;2022-12-24T11:39:57;13.30;74.70
1786;DHT22;890;48.158;11.540;2022-12-24T11:42:31;13.40;74.50
1786;DHT22;890;48.158;11.540;2022-12-24T11:44:59;13.40;73.70
1786;DHT22;890;48.158;11.540;2022-12-24T11:47:37;13.40;72.50
1786;DHT22;890;48.158;11.540;2022-12-24T11:50:28;13.20;71.80
1786;DHT22;890;48.158;11.540;2022-12-24T11:53:17;13.30;73.80
1786;DHT22;890;48.158;11.540;2022-12-24T11:58:25;13.50;73.70
1786;DHT22;890;48.158;11.540;2022-12-24T12:01:16;13.40;72.50
1786;DHT22;890;48.158;11.540;2022-12-24T12:03:47;13.20;71.60
1786;DHT22;890;48.158;11.540;2022-12-24T12:08:55;12.90;70.50
1786;DHT22;890;48.158;11.540;2022-12-24T12:11:22;12.70;70.50
1786;DHT22;890;48.158;11.540;2022-12-24T12:13:48;12.60;70.70
1786;DHT22;890;48.158;11.540;2022-12-24T12:18:51;12.40;70.80
1786;DHT22;890;48.158;11.540;2022-12-24T12:21:22;12.20;70.90
1786;DHT22;890;48.158;11.540;2022-12-24T12:24:00;12.20;71.40
1786;DHT22;890;48.158;11.540;2022-12-24T12:26:28;12.10;71.90
1786;DHT22;890;48.158;11.540;2022-12-24T12:29:20;12.20;71.90
1786;DHT22;890;48.158;11.540;2022-12-24T12:31:53;12.20;71.80
1786;DHT22;890;48.158;11.540;2022-12-24T12:34:37;12.10;71.80
1786;DHT22;890;48.158;11.540;2022-12-24T12:39:47;12.10;72.10
1786;DHT22;890;48.158;11.540;2022-12-24T12:48:03;11.90;71.90
1786;DHT22;890;48.158;11.540;2022-12-24T12:51:07;11.90;72.20
1786;DHT22;890;48.158;11.540;2022-12-24T12:54:07;11.90;72.40
1786;DHT22;890;48.158;11.540;2022-12-24T12:56:38;11.90;72.50
1786;DHT22;890;48.158;11.540;2022-12-24T12:59:17;12.00;72.40
1786;DHT22;890;48.158;11.540;2022-12-24T13:04:33;11.90;72.50
1786;DHT22;890;48.158;11.540;2022-12-24T13:18:15;12.00;72.80
1786;DHT22;890;48.158;11.540;2022-12-24T13:20:48;12.00;72.90
1786;DHT22;890;48.158;11.540;2022-12-24T13:23:18;11.90;72.80
1786;DHT22;890;48.158;11.540;2022-12-24T13:25:53;10.20;71.00
1786;DHT22;890;48.158;11.540;2022-12-24T13:30:46;11.90;72.70
1786;DHT22;890;48.158;11.540;2022-12-24T13:33:13;11.80;72.60
1786;DHT22;890;48.158;11.540;2022-12-24T13:36:00;11.80;72.80
1786;DHT22;890;48.158;11.540;2022-12-24T13:40:55;11.70;72.70
1786;DHT22;890;48.158;11.540;2022-12-24T13:49:40;11.50;72.90
1786;DHT22;890;48.158;11.540;2022-12-24T13:54:42;11.40;73.10
1786;DHT22;890;48.158;11.540;2022-12-24T14:00:24;11.50;73.50
1786;DHT22;890;48.158;11.540;2022-12-24T14:16:08;11.20;73.70
1786;DHT22;890;48.158;11.540;2022-12-24T14:18:41;11.30;73.80
1786;DHT22;890;48.158;11.540;2022-12-24T14:21:17;11.20;73.90
1786;DHT22;890;48.158;11.540;2022-12-24T14:23:56;11.30;74.20
1786;DHT22;890;48.158;11.540;2022-12-24T14:26:46;11.30;74.30
1786;DHT22;890;48.158;11.540;2022-12-24T14:29:34;11.30;74.00
1786;DHT22;890;48.158;11.540;2022-12-24T14:32:12;11.30;74.10
1786;DHT22;890;48.158;11.540;2022-12-24T14:34:39;11.30;74.20
1786;DHT22;890;48.158;11.540;2022-12-24T14:37:05;11.40;74.30
1786;DHT22;890;48.158;11.540;2022-12-24T14:39:33;11.30;74.30
1786;DHT22;890;48.158;11.540;2022-12-24T14:45:19;11.20;74.50
1786;DHT22;890;48.158;11.540;2022-12-24T14:48:04;11.20;74.60
1786;DHT22;890;48.158;11.540;2022-12-24T14:50:47;11.10;74.90
1786;DHT22;890;48.158;11.540;2022-12-24T14:56:19;11.00;75.30
1786;DHT22;890;48.158;11.540;2022-12-24T14:58:46;11.00;75.40
1786;DHT22;890;48.158;11.540;2022-12-24T15:01:26;11.00;75.60
1786;DHT22;890;48.158;11.540;2022-12-24T15:06:40;10.90;75.90
1786;DHT22;890;48.158;11.540;2022-12-24T15:09:28;10.80;75.90
1786;DHT22;890;48.158;11.540;2022-12-24T15:11:57;10.70;76.20
1786;DHT22;890;48.158;11.540;2022-12-24T15:14:26;10.70;76.20
1786;DHT22;890;48.158;11.540;2022-12-24T15:16:56;10.80;76.50
1786;DHT22;890;48.158;11.540;2022-12-24T15:19:31;10.80;76.70
1786;DHT22;890;48.158;11.540;2022-12-24T15:21:58;10.80;76.80
1786;DHT22;890;48.158;11.540;2022-12-24T15:24:29;12.50;78.60
1786;DHT22;890;48.158;11.540;2022-12-24T15:26:57;10.70;76.90
1786;DHT22;890;48.158;11.540;2022-12-24T15:29:28;10.90;77.00
1786;DHT22;890;48.158;11.540;2022-12-24T15:31:56;10.90;77.20
1786;DHT22;890;48.158;11.540;2022-12-24T15:36:52;10.90;77.20
1786;DHT22;890;48.158;11.540;2022-12-24T15:39:17;10.90;77.20
1786;DHT22;890;48.158;11.540;2022-12-24T15:41:44;10.90;77.40
1786;DHT22;890;48.158;11.540;2022-12-24T15:44:32;10.90;77.40
1786;DHT22;890;48.158;11.540;2022-12-24T15:46:59;10.90;77.60
1786;DHT22;890;48.158;11.540;2022-12-24T15:49:27;10.90;77.60
1786;DHT22;890;48.158;11.540;2022-12-24T15:52:05;10.90;78.30
1786;DHT22;890;48.158;11.540;2022-12-24T15:54:32;10.90;77.70
1786;DHT22;890;48.158;11.540;2022-12-24T15:56:58;11.00;77.60
1786;DHT22;890;48.158;11.540;2022-12-24T15:59:33;11.00;77.70
1786;DHT22;890;48.158;11.540;2022-12-24T16:02:32;11.00;77.70
1786;DHT22;890;48.158;11.540;2022-12-24T16:08:02;10.90;77.70
1786;DHT22;890;48.158;11.540;2022-12-24T16:11:05;10.90;78.00
1786;DHT22;890;48.158;11.540;2022-12-24T16:13:34;10.90;78.00
1786;DHT22;890;48.158;11.540;2022-12-24T16:16:04;10.90;78.00
1786;DHT22;890;48.158;11.540;2022-12-24T16:21:05;10.60;78.40
1786;DHT22;890;48.158;11.540;2022-12-24T16:23:52;10.60;78.60
1786;DHT22;890;48.158;11.540;2022-12-24T16:26:18;10.60;78.90
1786;DHT22;890;48.158;11.540;2022-12-24T16:28:44;10.60;79.00
1786;DHT22;890;48.158;11.540;2022-12-24T16:31:35;10.50;79.00
1786;DHT22;890;48.158;11.540;2022-12-24T16:34:02;10.50;79.90
1786;DHT22;890;48.158;11.540;2022-12-24T16:36:28;10.50;79.10
1786;DHT22;890;48.158;11.540;2022-12-24T16:38:56;10.50;79.20
1786;DHT22;890;48.158;11.540;2022-12-24T16:41:40;10.40;79.30
1786;DHT22;890;48.158;11.540;2022-12-24T16:44:25;10.40;79.60
1786;DHT22;890;48.158;11.540;2022-12-24T16:46:52;10.30;79.60
1786;DHT22;890;48.158;11.540;2022-12-24T16:49:19;10.40;79.90
1786;DHT22;890;48.158;11.540;2022-12-24T16:51:45;10.40;80.00
1786;DHT22;890;48.158;11.540;2022-12-24T16:54:12;10.40;80.00
1786;DHT22;890;48.158;11.540;2022-12-24T16:56:39;10.50;80.10
1786;DHT22;890;48.158;11.540;2022-12-24T16:59:04;10.60;80.00
1786;DHT22;890;48.158;11.540;2022-12-24T17:01:30;10.60;79.90
1786;DHT22;890;48.158;11.540;2022-12-24T17:03:55;10.60;79.80
1786;DHT22;890;48.158;11.540;2022-12-24T17:06:21;10.60;79.80
1786;DHT22;890;48.158;11.540;2022-12-24T17:08:47;10.50;79.70
1786;DHT22;890;48.158;11.540;2022-12-24T17:11:13;10.50;79.80
1786;DHT22;890;48.158;11.540;2022-12-24T17:13:39;10.50;79.90
1786;DHT22;890;48.158;11.540;2022-12-24T17:16:05;10.50;79.90
1786;DHT22;890;48.158;11.540;2022-12-24T17:18:31;10.50;80.00
1786;DHT22;890;48.158;11.540;2022-12-24T17:20:58;10.50;80.00
1786;DHT22;890;48.158;11.540;2022-12-24T17:23:24;10.40;80.10
1786;DHT22;890;48.158;11.540;2022-12-24T17:25:49;10.40;80.20
1786;DHT22;890;48.158;11.540;2022-12-24T17:28:15;10.40;80.30
1786;DHT22;890;48.158;11.540;2022-12-24T17:30:40;10.40;80.20
1786;DHT22;890;48.158;11.540;2022-12-24T17:33:06;10.50;80.20
1786;DHT22;890;48.158;11.540;2022-12-24T17:35:31;10.50;80.20
1786;DHT22;890;48.158;11.540;2022-12-24T17:37:57;10.60;80.20
1786;DHT22;890;48.158;11.540;2022-12-24T17:40:23;10.60;80.10
1786;DHT22;890;48.158;11.540;2022-12-24T17:42:48;10.60;80.00
1786;DHT22;890;48.158;11.540;2022-12-24T17:45:14;10.60;80.10
1786;DHT22;890;48.158;11.540;2022-12-24T17:47:39;10.60;80.00
1786;DHT22;890;48.158;11.540;2022-12-24T17:50:06;10.60;79.90
1786;DHT22;890;48.158;11.540;2022-12-24T17:52:31;10.60;79.90
1786;DHT22;890;48.158;11.540;2022-12-24T17:54:59;10.60;80.00
1786;DHT22;890;48.158;11.540;2022-12-24T17:57:24;10.60;79.90
1786;DHT22;890;48.158;11.540;2022-12-24T17:59:50;10.70;80.00
1786;DHT22;890;48.158;11.540;2022-12-24T18:02:16;10.70;79.80
1786;DHT22;890;48.158;11.540;2022-12-24T18:04:41;10.70;80.00
1786;DHT22;890;48.158;11.540;2022-12-24T18:07:07;10.70;79.80
1786;DHT22;890;48.158;11.540;2022-12-24T18:09:32;10.70;79.80
1786;DHT22;890;48.158;11.540;2022-12-24T18:11:58;10.80;79.80